createdAt,value
2018-04-26T00:20:50.345Z,8.6
2018-04-26T00:21:50.522Z,8.61
2018-04-26T00:22:50.882Z,8.53
2018-04-26T00:23:50.651Z,8.5
2018-04-26T00:24:51.313Z,8.5
2018-04-26T00:25:51.064Z,8.52
2018-04-26T00:26:51.368Z,8.5
2018-04-26T00:27:51.395Z,8.44
2018-04-26T00:28:51.799Z,8.44
2018-04-26T00:29:52.178Z,8.42
2018-04-26T00:30:52.053Z,8.32
2018-04-26T00:31:52.444Z,8.32
2018-04-26T00:32:53.092Z,8.28
2018-04-26T00:33:53.219Z,8.29
2018-04-26T00:34:53.317Z,8.28
2018-04-26T00:35:52.999Z,8.24
2018-04-26T00:36:53.387Z,8.24
2018-04-26T00:37:53.469Z,8.26
2018-04-26T00:38:53.932Z,8.24
2018-04-26T00:39:54.418Z,8.13
2018-04-26T00:40:54.514Z,8.14
2018-04-26T00:41:54.549Z,8.16
2018-04-26T00:42:54.646Z,8.13
2018-04-26T00:43:55.021Z,8.04
2018-04-26T00:44:55.402Z,8.07
2018-04-26T00:45:55.551Z,7.98
2018-04-26T00:46:55.995Z,8.06
2018-04-26T00:47:55.763Z,8.07
2018-04-26T00:48:55.511Z,8.01
2018-04-26T00:49:55.540Z,7.99
2018-04-26T00:50:56.105Z,7.98
2018-04-26T00:51:55.979Z,8.01
2018-04-26T00:52:56.295Z,8.01
2018-04-26T00:53:56.444Z,7.99
2018-04-26T00:54:56.840Z,7.93
2018-04-26T00:55:56.990Z,7.96
2018-04-26T00:56:57.467Z,8.01
2018-04-26T00:57:57.856Z,8.01
2018-04-26T00:58:57.865Z,8.09
2018-04-26T00:59:57.960Z,7.96
2018-04-26T01:00:58.290Z,8.01
2018-04-26T01:01:58.315Z,8.06
2018-04-26T01:02:58.089Z,7.93
2018-04-26T01:03:58.300Z,8.04
2018-04-26T01:04:58.603Z,7.96
2018-04-26T01:05:58.798Z,7.96
2018-04-26T01:06:58.821Z,7.91
2018-04-26T01:07:58.841Z,7.89
2018-04-26T01:08:58.623Z,7.93
2018-04-26T01:09:58.904Z,7.86
2018-04-26T01:10:58.928Z,7.83
2018-04-26T01:11:58.944Z,7.86
2018-04-26T01:12:58.995Z,7.78
2018-04-26T01:13:58.920Z,7.82
2018-04-26T01:14:59.237Z,7.8
2018-04-26T01:15:59.484Z,7.82
2018-04-26T01:16:59.712Z,7.75
2018-04-26T01:17:59.176Z,7.71
2018-04-26T01:18:59.743Z,7.61
2018-04-26T01:19:59.519Z,7.64
2018-04-26T01:21:00.098Z,7.61
2018-04-26T01:22:00.126Z,7.63
2018-04-26T01:23:00.149Z,7.56
2018-04-26T01:24:00.180Z,7.56
2018-04-26T01:24:59.938Z,7.55
2018-04-26T01:26:00.001Z,7.54
2018-04-26T01:27:00.459Z,7.49
2018-04-26T01:28:00.228Z,7.52
2018-04-26T01:29:00.245Z,7.49
2018-04-26T01:30:01.265Z,7.55
2018-04-26T01:31:01.016Z,7.52
2018-04-26T01:32:00.575Z,7.52
2018-04-26T01:33:01.069Z,7.45
2018-04-26T01:34:01.096Z,7.54
2018-04-26T01:35:01.579Z,7.45
2018-04-26T01:36:02.045Z,7.51
2018-04-26T01:37:02.062Z,7.39
2018-04-26T01:38:02.018Z,7.44
2018-04-26T01:39:02.038Z,7.47
2018-04-26T01:40:02.333Z,7.37
2018-04-26T01:41:02.081Z,7.54
2018-04-26T01:42:02.141Z,7.48
2018-04-26T01:43:02.719Z,7.47
2018-04-26T01:44:02.481Z,7.45
2018-04-26T01:45:02.975Z,7.44
2018-04-26T01:46:02.458Z,7.37
2018-04-26T01:47:03.029Z,7.52
2018-04-26T01:48:03.566Z,7.51
2018-04-26T01:49:03.264Z,7.45
2018-04-26T01:50:03.746Z,7.39
2018-04-26T01:51:03.680Z,7.45
2018-04-26T01:52:03.988Z,7.39
2018-04-26T01:53:03.770Z,7.44
2018-04-26T01:54:03.748Z,7.45
2018-04-26T01:55:04.546Z,7.34
2018-04-26T01:56:04.314Z,7.33
2018-04-26T01:57:04.538Z,7.4
2018-04-26T01:58:04.741Z,7.37
2018-04-26T01:59:04.782Z,7.4
2018-04-26T02:00:19.825Z,7.29
2018-04-26T02:01:05.235Z,7.33
2018-04-26T02:02:05.599Z,7.33
2018-04-26T02:03:06.041Z,7.3
2018-04-26T02:04:05.490Z,7.33
2018-04-26T02:05:06.113Z,7.3
2018-04-26T02:06:06.114Z,7.36
2018-04-26T02:07:05.990Z,7.37
2018-04-26T02:08:06.692Z,7.3
2018-04-26T02:09:06.689Z,7.3
2018-04-26T02:10:06.568Z,7.3
2018-04-26T02:11:06.924Z,7.37
2018-04-26T02:12:06.822Z,7.33
2018-04-26T02:13:07.489Z,7.34
2018-04-26T02:14:07.442Z,7.33
2018-04-26T02:15:07.045Z,7.44
2018-04-26T02:16:07.575Z,7.34
2018-04-26T02:17:07.337Z,7.36
2018-04-26T02:18:07.339Z,7.47
2018-04-26T02:19:07.746Z,7.47
2018-04-26T02:20:07.762Z,7.48
2018-04-26T02:21:08.170Z,7.48
2018-04-26T02:22:07.653Z,7.47
2018-04-26T02:23:08.212Z,7.51
2018-04-26T02:24:07.963Z,7.54
2018-04-26T02:25:08.001Z,7.61
2018-04-26T02:26:08.452Z,7.61
2018-04-26T02:27:08.526Z,7.67
2018-04-26T02:28:08.247Z,7.63
2018-04-26T02:29:08.344Z,7.77
2018-04-26T02:30:08.523Z,7.75
2018-04-26T02:31:08.704Z,7.83
2018-04-26T02:32:09.375Z,7.86
2018-04-26T02:33:09.756Z,7.92
2018-04-26T02:34:09.775Z,7.91
2018-04-26T02:35:09.662Z,7.99
2018-04-26T02:36:09.949Z,8.07
2018-04-26T02:37:09.964Z,8.14
2018-04-26T02:38:10.087Z,8.16
2018-04-26T02:39:10.510Z,8.16
2018-04-26T02:40:10.666Z,8.19
2018-04-26T02:41:10.939Z,8.17
2018-04-26T02:42:10.944Z,8.17
2018-04-26T02:43:11.114Z,8.14
2018-04-26T02:44:11.351Z,7.98
2018-04-26T02:45:11.709Z,8.01
2018-04-26T02:46:11.730Z,7.99
2018-04-26T02:47:11.442Z,8.01
2018-04-26T02:48:11.719Z,7.93
2018-04-26T02:49:11.498Z,7.83
2018-04-26T02:50:11.846Z,7.77
2018-04-26T02:51:12.016Z,7.75
2018-04-26T02:52:11.689Z,7.75
2018-04-26T02:53:12.095Z,7.75
2018-04-26T02:54:12.173Z,7.73
2018-04-26T02:55:11.874Z,7.75
2018-04-26T02:56:11.939Z,7.7
2018-04-26T02:57:12.613Z,7.77
2018-04-26T02:58:12.492Z,7.71
2018-04-26T02:59:12.826Z,7.77
2018-04-26T03:00:15.892Z,7.78
2018-04-26T03:01:12.818Z,7.78
2018-04-26T03:02:12.583Z,7.85
2018-04-26T03:03:12.987Z,7.91
2018-04-26T03:04:13.308Z,7.95
2018-04-26T03:05:13.364Z,8.04
2018-04-26T03:06:13.226Z,7.96
2018-04-26T03:07:13.777Z,7.99
2018-04-26T03:08:14.589Z,7.96
2018-04-26T03:09:14.685Z,8.01
2018-04-26T03:10:14.557Z,7.89
2018-04-26T03:11:15.388Z,7.93
2018-04-26T03:12:14.908Z,7.92
2018-04-26T03:13:15.617Z,7.92
2018-04-26T03:14:15.590Z,7.85
2018-04-26T03:15:15.464Z,7.73
2018-04-26T03:16:15.780Z,7.61
2018-04-26T03:17:15.838Z,7.54
2018-04-26T03:18:16.575Z,7.52
2018-04-26T03:19:16.560Z,7.39
2018-04-26T03:20:16.286Z,7.37
2018-04-26T03:21:16.584Z,7.34
2018-04-26T03:22:16.822Z,7.33
2018-04-26T03:23:17.015Z,7.31
2018-04-26T03:24:17.651Z,7.34
2018-04-26T03:25:17.224Z,7.3
2018-04-26T03:26:17.356Z,7.26
2018-04-26T03:27:17.568Z,7.21
2018-04-26T03:28:18.304Z,7.26
2018-04-26T03:29:18.000Z,7.34
2018-04-26T03:30:18.663Z,7.26
2018-04-26T03:31:18.267Z,7.3
2018-04-26T03:32:18.843Z,7.26
2018-04-26T03:33:19.220Z,7.22
2018-04-26T03:34:19.294Z,7.26
2018-04-26T03:35:19.331Z,7.12
2018-04-26T03:36:19.727Z,7.13
2018-04-26T03:37:20.414Z,7.01
2018-04-26T03:38:19.942Z,7.01
2018-04-26T03:39:19.712Z,6.97
2018-04-26T03:40:20.414Z,6.91
2018-04-26T03:41:20.288Z,7
2018-04-26T03:42:20.298Z,7.03
2018-04-26T03:43:20.166Z,6.95
2018-04-26T03:44:20.724Z,6.9
2018-04-26T03:45:20.542Z,7.03
2018-04-26T03:46:20.799Z,6.94
2018-04-26T03:47:21.228Z,6.95
2018-04-26T03:48:21.461Z,7.01
2018-04-26T03:49:21.019Z,7.01
2018-04-26T03:50:21.683Z,7.01
2018-04-26T03:51:21.859Z,7.15
2018-04-26T03:52:21.774Z,7.16
2018-04-26T03:53:21.526Z,7.21
2018-04-26T03:54:22.196Z,7.29
2018-04-26T03:55:21.951Z,7.27
2018-04-26T03:56:22.325Z,7.36
2018-04-26T03:57:22.345Z,7.39
2018-04-26T03:58:22.144Z,7.44
2018-04-26T03:59:22.547Z,7.45
2018-04-26T05:00:10.479Z,9.56
2018-04-26T05:01:10.135Z,9.6
2018-04-26T05:02:10.881Z,9.53
2018-04-26T05:03:10.476Z,9.56
2018-04-26T05:04:10.043Z,9.62
2018-04-26T05:05:10.267Z,9.62
2018-04-26T05:06:10.084Z,9.71
2018-04-26T05:07:10.299Z,9.71
2018-04-26T05:08:10.606Z,9.84
2018-04-26T05:09:10.339Z,9.81
2018-04-26T05:10:10.840Z,9.85
2018-04-26T05:11:10.846Z,9.9
2018-04-26T05:12:10.760Z,9.82
2018-04-26T05:13:10.527Z,9.88
2018-04-26T05:14:10.844Z,9.84
2018-04-26T05:15:11.054Z,9.84
2018-04-26T05:16:11.766Z,9.85
2018-04-26T05:17:12.261Z,9.8
2018-04-26T05:18:12.206Z,9.88
2018-04-26T05:19:12.476Z,9.9
2018-04-26T05:20:12.227Z,9.95
2018-04-26T05:21:13.371Z,9.93
2018-04-26T05:22:13.335Z,9.95
2018-04-26T05:23:13.111Z,10.05
2018-04-26T05:24:13.400Z,10.1
2018-04-26T05:25:13.427Z,10.05
2018-04-26T05:26:13.180Z,10.17
2018-04-26T05:27:13.477Z,10.18
2018-04-26T05:28:13.474Z,10.29
2018-04-26T05:29:13.530Z,10.42
2018-04-26T05:30:13.400Z,10.46
2018-04-26T05:31:15.222Z,10.35
2018-04-26T05:32:14.534Z,10.54
2018-04-26T05:33:14.333Z,10.42
2018-04-26T05:34:15.569Z,10.36
2018-04-26T05:35:15.828Z,10.41
2018-04-26T05:36:14.461Z,10.44
2018-04-26T05:37:14.462Z,10.42
2018-04-26T05:38:14.468Z,10.35
2018-04-26T05:39:14.497Z,10.52
2018-04-26T05:40:14.628Z,10.47
2018-04-26T05:41:14.825Z,10.46
2018-04-26T05:42:14.579Z,10.33
2018-04-26T05:43:14.895Z,10.46
2018-04-26T05:44:14.926Z,10.41
2018-04-26T05:45:14.933Z,10.32
2018-04-26T05:46:14.969Z,10.41
2018-04-26T05:47:15.164Z,10.31
2018-04-26T05:48:15.200Z,10.29
2018-04-26T05:49:15.050Z,10.28
2018-04-26T05:50:15.096Z,10.39
2018-04-26T05:51:14.867Z,10.32
2018-04-26T05:52:15.156Z,10.25
2018-04-26T05:53:15.254Z,10.26
2018-04-26T05:54:15.401Z,10.35
2018-04-26T05:55:15.223Z,10.35
2018-04-26T05:56:15.385Z,10.31
2018-04-26T05:57:15.799Z,10.35
2018-04-26T05:58:15.039Z,10.39
2018-04-26T05:59:15.294Z,10.23
2018-04-26T06:00:17.145Z,10.33
2018-04-26T06:01:17.546Z,10.29
2018-04-26T06:02:17.676Z,10.33
2018-04-26T06:03:17.848Z,10.29
2018-04-26T06:04:17.618Z,10.31
2018-04-26T06:05:17.975Z,10.38
2018-04-26T06:06:18.050Z,10.31
2018-04-26T06:07:18.714Z,10.35
2018-04-26T06:08:18.725Z,10.41
2018-04-26T06:09:19.101Z,10.42
2018-04-26T06:10:18.597Z,10.49
2018-04-26T06:11:19.065Z,10.33
2018-04-26T06:12:19.375Z,10.49
2018-04-26T06:13:19.395Z,10.52
2018-04-26T06:14:19.406Z,10.55
2018-04-26T06:15:19.445Z,10.65
2018-04-26T06:16:19.894Z,10.63
2018-04-26T06:17:19.629Z,10.76
2018-04-26T06:18:19.748Z,10.77
2018-04-26T06:19:20.242Z,10.79
2018-04-26T06:20:20.044Z,10.79
2018-04-26T06:21:21.029Z,10.91
2018-04-26T06:22:20.261Z,11.05
2018-04-26T06:23:20.363Z,10.95
2018-04-26T06:24:20.894Z,11.05
2018-04-26T06:25:20.827Z,11.1
2018-04-26T06:26:20.600Z,11.15
2018-04-26T06:27:20.777Z,11.03
2018-04-26T06:28:21.267Z,11.1
2018-04-26T06:29:21.423Z,11.08
2018-04-26T06:30:22.925Z,11.08
2018-04-26T06:31:22.937Z,11.13
2018-04-26T06:32:22.777Z,11.15
2018-04-26T06:33:23.129Z,11.18
2018-04-26T06:34:23.325Z,11.15
2018-04-26T06:35:23.155Z,11.23
2018-04-26T06:36:23.052Z,11.02
2018-04-26T06:37:22.623Z,11
2018-04-26T06:38:22.670Z,11.09
2018-04-26T06:39:23.470Z,11.1
2018-04-26T06:40:23.092Z,11.05
2018-04-26T06:41:22.481Z,11.02
2018-04-26T06:42:23.334Z,10.95
2018-04-26T06:43:22.849Z,10.73
2018-04-26T06:44:22.737Z,10.75
2018-04-26T06:45:22.684Z,10.75
2018-04-26T06:46:22.956Z,10.7
2018-04-26T06:47:23.320Z,10.66
2018-04-26T06:48:23.205Z,10.52
2018-04-26T06:49:23.452Z,10.39
2018-04-26T06:50:23.064Z,10.36
2018-04-26T06:51:23.920Z,10.39
2018-04-26T06:52:23.907Z,10.46
2018-04-26T06:53:23.692Z,10.42
2018-04-26T06:54:24.106Z,10.49
2018-04-26T06:55:23.829Z,10.46
2018-04-26T06:56:24.239Z,10.49
2018-04-26T06:57:24.272Z,10.54
2018-04-26T06:58:24.397Z,10.57
2018-04-26T06:59:24.234Z,10.61
2018-04-26T07:00:25.086Z,10.67
2018-04-26T07:01:24.704Z,10.85
2018-04-26T07:02:24.708Z,10.97
2018-04-26T07:03:25.377Z,11.21
2018-04-26T07:04:25.780Z,11.81
2018-04-26T07:05:25.569Z,12.45
2018-04-26T07:06:26.254Z,12.73
2018-04-26T07:07:26.049Z,12.89
2018-04-26T07:08:26.473Z,13.13
2018-04-26T07:09:26.666Z,13.14
2018-04-26T07:10:26.821Z,13.02
2018-04-26T07:11:27.137Z,12.92
2018-04-26T07:12:27.593Z,12.86
2018-04-26T07:13:27.991Z,13.36
2018-04-26T07:14:28.644Z,14.31
2018-04-26T07:15:28.046Z,15.49
2018-04-26T07:16:28.068Z,16.39
2018-04-26T07:17:28.481Z,16.63
2018-04-26T07:18:28.352Z,16.54
2018-04-26T07:19:28.519Z,17.38
2018-04-26T07:20:29.197Z,18.69
2018-04-26T07:21:29.211Z,20.08
2018-04-26T07:22:28.983Z,21.33
2018-04-26T07:23:29.543Z,22.09
2018-04-26T07:24:29.333Z,22.31
2018-04-26T07:25:29.044Z,22.02
2018-04-26T07:26:29.382Z,21.62
2018-04-26T07:27:29.593Z,21.45
2018-04-26T07:28:30.254Z,21.06
2018-04-26T07:29:29.723Z,20.42
2018-04-26T07:30:30.448Z,20.79
2018-04-26T07:31:30.447Z,21.74
2018-04-26T07:32:30.540Z,22.29
2018-04-26T07:33:30.491Z,22.24
2018-04-26T07:34:30.348Z,22.14
2018-04-26T07:35:30.435Z,22.05
2018-04-26T07:36:30.354Z,21.99
2018-04-26T07:37:30.887Z,21.85
2018-04-26T07:38:30.887Z,22.22
2018-04-26T07:39:30.609Z,22.57
2018-04-26T07:40:30.932Z,23.45
2018-04-26T07:41:31.196Z,24.27
2018-04-26T07:42:30.935Z,24.75
2018-04-26T07:43:31.225Z,24.42
2018-04-26T07:44:31.587Z,23.62
2018-04-26T07:45:31.297Z,22.63
2018-04-26T07:46:31.931Z,21.77
2018-04-26T07:47:31.623Z,21.27
2018-04-26T07:48:31.665Z,20.86
2018-04-26T07:49:31.697Z,20.64
2018-04-26T07:50:31.962Z,20.42
2018-04-26T07:51:32.011Z,20.38
2018-04-26T07:52:32.423Z,20.3
2018-04-26T07:53:32.223Z,19.85
2018-04-26T07:54:32.581Z,20.04
2018-04-26T07:55:32.539Z,20.37
2018-04-26T07:56:32.954Z,20.64
2018-04-26T07:57:33.384Z,21.11
2018-04-26T07:58:33.208Z,21.51
2018-04-26T07:59:33.079Z,22.39
2018-04-26T08:00:33.514Z,22.82
2018-04-26T08:01:33.758Z,22.96
2018-04-26T08:02:33.374Z,22.61
2018-04-26T08:03:33.459Z,22.61
2018-04-26T08:04:33.413Z,23.41
2018-04-26T08:05:33.446Z,23.72
2018-04-26T08:06:33.225Z,23.72
2018-04-26T08:07:33.867Z,23.15
2018-04-26T08:08:33.661Z,22.46
2018-04-26T08:09:33.824Z,21.67
2018-04-26T08:10:34.304Z,20.54
2018-04-26T08:11:33.821Z,19.53
2018-04-26T08:12:35.168Z,18.78
2018-04-26T08:13:33.726Z,18.05
2018-04-26T08:14:34.176Z,17.43
2018-04-26T08:15:33.888Z,16.88
2018-04-26T08:16:33.663Z,16.65
2018-04-26T08:17:33.690Z,16.37
2018-04-26T08:18:33.760Z,16.22
2018-04-26T08:19:34.604Z,16.36
2018-04-26T08:20:34.017Z,16.81
2018-04-26T08:21:34.665Z,17.21
2018-04-26T08:22:34.690Z,18.17
2018-04-26T08:23:34.455Z,19.02
2018-04-26T08:24:35.121Z,20.42
2018-04-26T08:25:35.289Z,22.26
2018-04-26T08:26:36.104Z,23.57
2018-04-26T08:27:36.039Z,24.32
2018-04-26T08:28:36.130Z,24.33
2018-04-26T08:29:36.095Z,23.63
2018-04-26T08:30:36.438Z,22.38
2018-04-26T08:31:36.168Z,20.96
2018-04-26T08:32:35.968Z,19.6
2018-04-26T08:33:36.584Z,18.57
2018-04-26T08:34:36.662Z,17.57
2018-04-26T08:35:36.487Z,17.02
2018-04-26T08:36:37.136Z,16.42
2018-04-26T08:37:37.242Z,15.86
2018-04-26T08:38:37.570Z,15.4
2018-04-26T08:39:36.694Z,15.01
2018-04-26T08:40:37.512Z,14.71
2018-04-26T08:41:37.075Z,14.52
2018-04-26T08:42:37.061Z,14.34
2018-04-26T08:43:37.734Z,14.26
2018-04-26T08:44:37.489Z,14.26
2018-04-26T08:45:37.296Z,14.33
2018-04-26T08:46:37.182Z,14.48
2018-04-26T08:47:37.974Z,14.66
2018-04-26T08:48:37.374Z,14.77
2018-04-26T08:49:38.348Z,14.8
2018-04-26T08:50:37.984Z,14.79
2018-04-26T08:51:38.389Z,14.51
2018-04-26T08:52:38.121Z,14.3
2018-04-26T08:53:39.039Z,14.06
2018-04-26T08:54:38.169Z,13.73
2018-04-26T08:55:38.377Z,13.7
2018-04-26T08:56:38.636Z,13.65
2018-04-26T08:57:38.549Z,13.48
2018-04-26T08:58:39.283Z,13.31
2018-04-26T08:59:38.340Z,13.24
2018-04-26T09:00:41.518Z,13.19
2018-04-26T09:01:41.326Z,13.11
2018-04-26T09:02:38.358Z,12.95
2018-04-26T09:03:38.622Z,12.8
2018-04-26T09:04:38.874Z,12.56
2018-04-26T09:05:39.014Z,12.25
2018-04-26T09:06:38.697Z,12.1
2018-04-26T09:07:39.114Z,11.95
2018-04-26T09:08:39.010Z,11.71
2018-04-26T09:09:38.670Z,11.3
2018-04-26T09:10:38.776Z,11.08
2018-04-26T09:11:39.015Z,11.03
2018-04-26T09:12:39.362Z,10.79
2018-04-26T09:13:39.144Z,10.79
2018-04-26T09:14:39.262Z,10.69
2018-04-26T09:15:41.469Z,10.76
2018-04-26T09:16:41.245Z,10.76
2018-04-26T09:17:40.955Z,10.79
2018-04-26T09:18:40.454Z,10.79
2018-04-26T09:19:40.310Z,10.84
2018-04-26T09:20:40.676Z,11.12
2018-04-26T09:21:40.976Z,11.02
2018-04-26T09:22:40.766Z,11.13
2018-04-26T09:23:40.868Z,11.3
2018-04-26T09:24:40.851Z,11.45
2018-04-26T09:25:40.497Z,11.76
2018-04-26T09:26:40.220Z,11.81
2018-04-26T09:27:40.541Z,12.04
2018-04-26T09:28:40.587Z,12.86
2018-04-26T09:29:41.097Z,13.93
2018-04-26T09:30:41.113Z,15.13
2018-04-26T09:31:41.256Z,16.45
2018-04-26T09:32:41.447Z,17.35
2018-04-26T09:33:41.479Z,17.42
2018-04-26T09:34:41.842Z,17.12
2018-04-26T09:35:41.152Z,16.91
2018-04-26T09:36:41.633Z,16.22
2018-04-26T09:37:41.815Z,15.35
2018-04-26T09:38:41.765Z,14.63
2018-04-26T09:39:41.343Z,13.86
2018-04-26T09:40:42.068Z,13.36
2018-04-26T09:41:41.876Z,12.94
2018-04-26T09:42:41.654Z,12.63
2018-04-26T09:43:42.052Z,12.31
2018-04-26T09:44:42.254Z,12.16
2018-04-26T09:45:42.483Z,12.11
2018-04-26T09:46:42.733Z,12.96
2018-04-26T09:47:42.715Z,14.44
2018-04-26T09:48:42.844Z,16.54
2018-04-26T09:49:42.960Z,18.24
2018-04-26T09:50:43.506Z,19.1
2018-04-26T09:51:42.941Z,18.87
2018-04-26T09:52:42.507Z,18.51
2018-04-26T09:53:42.365Z,19.09
2018-04-26T09:54:43.647Z,20.07
2018-04-26T09:55:43.528Z,20.93
2018-04-26T09:56:43.226Z,21.33
2018-04-26T09:57:43.682Z,22.29
2018-04-26T09:58:44.466Z,23.22
2018-04-26T09:59:43.798Z,23.77
2018-04-26T10:00:43.526Z,23.96
2018-04-26T10:01:44.020Z,23.84
2018-04-26T10:02:44.671Z,24.51
2018-04-26T10:03:43.672Z,25.23
2018-04-26T10:04:43.916Z,25.63
2018-04-26T10:05:43.992Z,25.76
2018-04-26T10:06:44.607Z,26.42
2018-04-26T10:07:43.754Z,26.5
2018-04-26T10:08:44.205Z,25.75
2018-04-26T10:09:44.434Z,25.7
2018-04-26T10:10:43.920Z,26.34
2018-04-26T10:11:44.776Z,27.06
2018-04-26T10:12:45.347Z,27.55
2018-04-26T10:13:45.608Z,27.55
2018-04-26T10:14:45.005Z,26.41
2018-04-26T10:15:45.026Z,24.64
2018-04-26T10:16:45.473Z,22.84
2018-04-26T10:17:45.371Z,20.78
2018-04-26T10:18:45.013Z,19.79
2018-04-26T10:19:44.792Z,18.75
2018-04-26T10:20:45.065Z,18.17
2018-04-26T10:21:44.995Z,17.69
2018-04-26T10:22:45.544Z,17.36
2018-04-26T10:23:45.616Z,17.15
2018-04-26T10:24:45.508Z,16.72
2018-04-26T10:25:45.815Z,16.34
2018-04-26T10:26:46.285Z,16.18
2018-04-26T10:27:46.499Z,15.99
2018-04-26T10:28:46.376Z,15.86
2018-04-26T10:29:46.559Z,15.89
2018-04-26T10:30:46.899Z,16.92
2018-04-26T10:31:47.092Z,17.35
2018-04-26T10:32:47.223Z,17.2
2018-04-26T10:33:47.426Z,16.36
2018-04-26T10:34:47.963Z,15.7
2018-04-26T10:35:47.544Z,16.32
2018-04-26T10:36:47.580Z,16.84
2018-04-26T10:37:48.025Z,16.8
2018-04-26T10:38:48.454Z,16.85
2018-04-26T10:39:49.897Z,16.82
2018-04-26T10:40:49.387Z,16.48
2018-04-26T10:41:49.224Z,16.27
2018-04-26T10:42:49.622Z,15.91
2018-04-26T10:43:50.021Z,15.4
2018-04-26T10:44:50.050Z,14.98
2018-04-26T10:45:49.809Z,14.74
2018-04-26T10:46:50.298Z,14.59
2018-04-26T10:47:50.332Z,14.49
2018-04-26T10:48:52.000Z,14.23
2018-04-26T10:49:50.918Z,14.06
2018-04-26T10:50:50.802Z,13.91
2018-04-26T10:51:51.936Z,13.81
2018-04-26T10:52:51.468Z,13.63
2018-04-26T10:53:52.100Z,13.65
2018-04-26T10:54:52.793Z,13.53
2018-04-26T10:55:52.029Z,13.51
2018-04-26T10:56:52.013Z,13.55
2018-04-26T10:57:51.969Z,13.69
2018-04-26T10:58:52.914Z,14.13
2018-04-26T10:59:52.860Z,14.61
2018-04-26T11:00:51.616Z,14.7
2018-04-26T11:01:52.107Z,14.83
2018-04-26T11:02:52.709Z,14.79
2018-04-26T11:03:52.321Z,14.93
2018-04-26T11:04:53.594Z,15.1
2018-04-26T11:05:52.214Z,15.25
2018-04-26T11:06:52.557Z,15.15
2018-04-26T11:07:52.329Z,15.18
2018-04-26T11:08:52.591Z,15.22
2018-04-26T11:09:52.493Z,15.52
2018-04-26T11:10:52.557Z,15.89
2018-04-26T11:11:52.982Z,16.16
2018-04-26T11:12:53.367Z,16.13
2018-04-26T11:13:53.255Z,16.32
2018-04-26T11:14:54.079Z,16.11
2018-04-26T11:15:53.809Z,15.71
2018-04-26T11:16:53.873Z,15.77
2018-04-26T11:17:54.598Z,15.77
2018-04-26T11:18:54.969Z,15.68
2018-04-26T11:19:54.727Z,15.8
2018-04-26T11:20:54.831Z,15.81
2018-04-26T11:21:54.791Z,16.17
2018-04-26T11:22:55.459Z,16.69
2018-04-26T11:23:55.232Z,16.91
2018-04-26T11:24:55.604Z,17.22
2018-04-26T11:25:55.618Z,17.5
2018-04-26T11:26:55.394Z,17.5
2018-04-26T11:27:55.419Z,17.49
2018-04-26T11:28:56.029Z,17.52
2018-04-26T11:29:55.934Z,17.79
2018-04-26T11:30:56.127Z,17.87
2018-04-26T11:31:56.255Z,17.43
2018-04-26T11:32:55.811Z,17.36
2018-04-26T11:33:56.143Z,17.24
2018-04-26T11:34:55.883Z,16.94
2018-04-26T11:35:56.544Z,16.82
2018-04-26T11:36:57.008Z,16.57
2018-04-26T11:37:56.706Z,16.32
2018-04-26T11:38:57.395Z,16.22
2018-04-26T11:39:57.624Z,16.17
2018-04-26T11:40:57.554Z,16.1
2018-04-26T11:41:57.968Z,16.1
2018-04-26T11:42:58.023Z,16.29
2018-04-26T11:43:58.009Z,16.26
2018-04-26T11:44:58.040Z,16.14
2018-04-26T11:45:57.576Z,16.16
2018-04-26T11:46:58.115Z,16.29
2018-04-26T11:47:58.172Z,16.36
2018-04-26T11:48:58.333Z,16.36
2018-04-26T11:49:58.933Z,16.49
2018-04-26T11:50:59.901Z,16.67
2018-04-26T11:51:58.795Z,16.87
2018-04-26T11:52:59.047Z,16.87
2018-04-26T11:53:58.493Z,16.77
2018-04-26T11:54:58.791Z,16.67
2018-04-26T11:55:58.927Z,16.48
2018-04-26T11:56:59.096Z,16.45
2018-04-26T11:57:59.790Z,16.36
2018-04-26T11:59:00.478Z,16.36
2018-04-26T12:00:00.197Z,16.48
2018-04-26T12:00:59.978Z,16.42
2018-04-26T12:02:00.468Z,16.54
2018-04-26T12:03:00.309Z,16.42
2018-04-26T12:04:00.922Z,16.4
2018-04-26T12:05:00.658Z,16.36
2018-04-26T12:06:01.092Z,16.39
2018-04-26T12:07:02.082Z,16.18
2018-04-26T12:08:01.303Z,16.14
2018-04-26T12:09:01.299Z,16.16
2018-04-26T12:10:01.036Z,16.22
2018-04-26T12:11:01.893Z,16.34
2018-04-26T12:12:01.797Z,16.39
2018-04-26T12:13:02.176Z,16.32
2018-04-26T12:14:02.622Z,16.16
2018-04-26T12:15:02.870Z,15.89
2018-04-26T12:16:02.500Z,15.91
2018-04-26T12:17:02.879Z,15.93
2018-04-26T12:18:03.015Z,16.13
2018-04-26T12:19:03.706Z,16.27
2018-04-26T12:20:03.748Z,16.39
2018-04-26T12:21:03.553Z,16.54
2018-04-26T12:22:04.163Z,16.47
2018-04-26T12:23:03.459Z,16.42
2018-04-26T12:24:03.880Z,16.27
2018-04-26T12:25:03.785Z,15.93
2018-04-26T12:26:04.086Z,15.91
2018-04-26T12:27:04.270Z,15.58
2018-04-26T12:28:04.351Z,15.3
2018-04-26T12:29:04.551Z,15.25
2018-04-26T12:30:04.301Z,15
2018-04-26T12:31:04.546Z,14.82
2018-04-26T12:32:04.457Z,14.74
2018-04-26T12:33:04.980Z,14.67
2018-04-26T12:34:05.013Z,14.56
2018-04-26T12:35:04.911Z,14.44
2018-04-26T12:36:04.845Z,14.44
2018-04-26T12:37:05.085Z,14.64
2018-04-26T12:38:05.836Z,14.69
2018-04-26T12:39:05.627Z,14.89
2018-04-26T12:40:05.749Z,15.1
2018-04-26T12:41:06.908Z,15.08
2018-04-26T12:42:06.794Z,14.9
2018-04-26T12:43:06.572Z,14.95
2018-04-26T12:44:06.462Z,14.74
2018-04-26T12:45:06.428Z,14.69
2018-04-26T12:46:06.203Z,14.69
2018-04-26T12:47:06.046Z,14.74
2018-04-26T12:48:05.893Z,14.61
2018-04-26T12:49:06.399Z,14.64
2018-04-26T12:50:06.417Z,14.79
2018-04-26T12:51:05.940Z,14.6
2018-04-26T12:52:05.929Z,14.7
2018-04-26T12:53:06.196Z,14.67
2018-04-26T12:54:06.138Z,14.64
2018-04-26T12:55:06.218Z,14.59
2018-04-26T12:56:06.960Z,14.7
2018-04-26T12:57:07.033Z,14.69
2018-04-26T12:58:07.149Z,14.85
2018-04-26T12:59:06.997Z,14.93
2018-04-26T13:00:20.246Z,14.98
2018-04-26T13:01:19.985Z,15.15
2018-04-26T13:02:20.054Z,15.25
2018-04-26T13:03:20.576Z,15.2
2018-04-26T13:04:20.526Z,15.26
2018-04-26T13:05:20.677Z,15.07
2018-04-26T13:06:21.121Z,15.02
2018-04-26T13:07:21.250Z,14.97
2018-04-26T13:08:21.385Z,14.89
2018-04-26T13:09:21.268Z,14.93
2018-04-26T13:10:21.571Z,14.77
2018-04-26T13:11:21.624Z,14.83
2018-04-26T13:12:22.012Z,14.79
2018-04-26T13:13:22.047Z,14.79
2018-04-26T13:14:21.790Z,14.85
2018-04-26T13:15:21.659Z,14.94
2018-04-26T13:16:22.250Z,15.01
2018-04-26T13:17:22.165Z,15
2018-04-26T13:18:22.263Z,15.07
2018-04-26T13:19:22.299Z,15.07
2018-04-26T13:20:22.422Z,14.93
2018-04-26T13:21:22.095Z,14.9
2018-04-26T13:22:22.637Z,14.86
2018-04-26T13:23:22.785Z,14.74
2018-04-26T13:24:22.633Z,14.77
2018-04-26T13:25:23.051Z,14.61
2018-04-26T13:26:23.200Z,14.38
2018-04-26T13:27:23.470Z,13.94
2018-04-26T13:28:23.689Z,13.72
2018-04-26T13:29:24.101Z,13.66
2018-04-26T13:30:23.966Z,13.48
2018-04-26T13:31:24.360Z,13.53
2018-04-26T13:32:24.568Z,13.55
2018-04-26T13:33:24.730Z,13.81
2018-04-26T13:34:25.251Z,14.05
2018-04-26T13:35:25.372Z,14.3
2018-04-26T13:36:25.826Z,14.57
2018-04-26T13:37:25.317Z,14.79
2018-04-26T13:38:25.623Z,15.04
2018-04-26T13:39:25.647Z,15.16
2018-04-26T13:40:25.945Z,15.05
2018-04-26T13:41:25.510Z,14.98
2018-04-26T13:42:25.527Z,14.82
2018-04-26T13:43:25.966Z,14.7
2018-04-26T13:44:26.400Z,14.46
2018-04-26T13:45:26.266Z,14.28
2018-04-26T13:46:27.021Z,14.16
2018-04-26T13:47:27.208Z,14.2
2018-04-26T13:48:27.391Z,14.24
2018-04-26T13:49:27.422Z,14.26
2018-04-26T13:50:28.156Z,14.21
2018-04-26T13:51:28.158Z,14.16
2018-04-26T13:52:28.351Z,14.02
2018-04-26T13:53:28.316Z,14.09
2018-04-26T13:54:28.469Z,14.05
2018-04-26T13:55:28.789Z,14.06
2018-04-26T13:56:29.020Z,14.05
2018-04-26T13:57:29.259Z,13.99
2018-04-26T13:58:29.455Z,13.9
2018-04-26T13:59:29.360Z,13.94
2018-04-26T14:00:29.642Z,13.91
2018-04-26T14:01:29.647Z,13.86
2018-04-26T14:02:29.800Z,13.93
2018-04-26T14:03:30.316Z,13.88
2018-04-26T14:04:30.181Z,13.93
2018-04-26T14:05:30.746Z,13.81
2018-04-26T14:06:30.681Z,13.81
2018-04-26T14:07:30.704Z,13.83
2018-04-26T14:08:31.381Z,13.79
2018-04-26T14:09:31.242Z,13.72
2018-04-26T14:10:31.384Z,13.87
2018-04-26T14:11:31.969Z,13.91
2018-04-26T14:12:32.367Z,14.03
2018-04-26T14:13:32.375Z,14.06
2018-04-26T14:14:32.419Z,14.03
2018-04-26T14:15:32.188Z,14.02
2018-04-26T14:16:32.555Z,13.95
2018-04-26T14:17:33.296Z,13.99
2018-04-26T14:18:33.073Z,13.91
2018-04-26T14:19:33.319Z,13.94
2018-04-26T14:20:33.512Z,13.91
2018-04-26T14:21:33.939Z,13.91
2018-04-26T14:22:33.675Z,14.08
2018-04-26T14:23:34.335Z,14.21
2018-04-26T14:24:34.113Z,14.19